sensor_id;sensor_type;location;lat;lon;timestamp;pressure;altitude;pressure_sealevel;temperature;humidity
9110;BME280;4590;51.462;6.692;2023-12-14T00:02:12;100475.19;;;9.43;80.22
9110;BME280;4590;51.462;6.692;2023-12-14T00:04:37;100475.66;;;9.45;79.80
9110;BME280;4590;51.462;6.692;2023-12-14T00:07:03;100485.84;;;9.44;80.15
9110;BME280;4590;51.462;6.692;2023-12-14T00:09:28;100484.53;;;9.42;80.08
9110;BME280;4590;51.462;6.692;2023-12-14T00:11:53;100486.16;;;9.43;79.61
9110;BME280;4590;51.462;6.692;2023-12-14T00:14:19;100482.09;;;9.40;80.41
9110;BME280;4590;51.462;6.692;2023-12-14T00:16:44;100490.53;;;9.44;79.99
9110;BME280;4590;51.462;6.692;2023-12-14T00:19:09;100498.44;;;9.45;79.76
9110;BME280;4590;51.462;6.692;2023-12-14T00:21:34;100501.72;;;9.47;79.72
9110;BME280;4590;51.462;6.692;2023-12-14T00:24:00;100497.03;;;9.48;79.53
9110;BME280;4590;51.462;6.692;2023-12-14T00:26:25;100506.59;;;9.50;79.57
9110;BME280;4590;51.462;6.692;2023-12-14T00:28:50;100512.59;;;9.53;79.88
9110;BME280;4590;51.462;6.692;2023-12-14T00:31:16;100524.41;;;9.53;79.79
9110;BME280;4590;51.462;6.692;2023-12-14T00:33:42;100520.84;;;9.53;79.55
9110;BME280;4590;51.462;6.692;2023-12-14T00:36:07;100531.31;;;9.50;79.57
9110;BME280;4590;51.462;6.692;2023-12-14T00:38:33;100541.78;;;9.48;79.57
9110;BME280;4590;51.462;6.692;2023-12-14T00:40:58;100546.16;;;9.49;79.21
9110;BME280;4590;51.462;6.692;2023-12-14T00:43:23;100548.41;;;9.47;79.41
9110;BME280;4590;51.462;6.692;2023-12-14T00:45:48;100547.88;;;9.45;79.29
9110;BME280;4590;51.462;6.692;2023-12-14T00:48:14;100566.91;;;9.42;79.30
9110;BME280;4590;51.462;6.692;2023-12-14T00:50:39;100574.22;;;9.33;78.90
9110;BME280;4590;51.462;6.692;2023-12-14T00:53:04;100577.25;;;9.31;78.82
9110;BME280;4590;51.462;6.692;2023-12-14T00:55:30;100583.69;;;9.27;78.92
9110;BME280;4590;51.462;6.692;2023-12-14T00:57:55;100597.19;;;9.23;78.90
9110;BME280;4590;51.462;6.692;2023-12-14T01:00:20;100609.34;;;9.17;79.00
9110;BME280;4590;51.462;6.692;2023-12-14T01:02:46;100618.00;;;9.10;79.12
9110;BME280;4590;51.462;6.692;2023-12-14T01:05:11;100611.75;;;9.05;79.30
9110;BME280;4590;51.462;6.692;2023-12-14T01:07:36;100621.63;;;9.06;79.09
9110;BME280;4590;51.462;6.692;2023-12-14T01:10:02;100620.47;;;8.93;79.12
9110;BME280;4590;51.462;6.692;2023-12-14T01:12:28;100623.72;;;8.95;79.05
9110;BME280;4590;51.462;6.692;2023-12-14T01:14:53;100625.13;;;8.93;79.31
9110;BME280;4590;51.462;6.692;2023-12-14T01:17:18;100626.00;;;8.88;79.39
9110;BME280;4590;51.462;6.692;2023-12-14T01:19:43;100638.69;;;8.84;78.97
9110;BME280;4590;51.462;6.692;2023-12-14T01:22:09;100633.19;;;8.84;79.38
9110;BME280;4590;51.462;6.692;2023-12-14T01:24:34;100637.34;;;8.82;79.33
9110;BME280;4590;51.462;6.692;2023-12-14T01:26:59;100642.53;;;8.83;79.18
9110;BME280;4590;51.462;6.692;2023-12-14T01:29:24;100645.56;;;8.82;79.03
9110;BME280;4590;51.462;6.692;2023-12-14T01:31:50;100651.69;;;8.78;78.90
9110;BME280;4590;51.462;6.692;2023-12-14T01:34:15;100657.69;;;8.81;79.02
9110;BME280;4590;51.462;6.692;2023-12-14T01:36:41;100664.00;;;8.81;79.41
9110;BME280;4590;51.462;6.692;2023-12-14T01:39:06;100667.22;;;8.83;79.16
9110;BME280;4590;51.462;6.692;2023-12-14T01:41:32;100680.47;;;8.81;79.02
9110;BME280;4590;51.462;6.692;2023-12-14T01:43:57;100687.56;;;8.82;78.86
9110;BME280;4590;51.462;6.692;2023-12-14T01:46:22;100696.59;;;8.83;78.98
9110;BME280;4590;51.462;6.692;2023-12-14T01:48:47;100701.06;;;8.78;78.67
9110;BME280;4590;51.462;6.692;2023-12-14T01:51:13;100709.06;;;8.75;78.52
9110;BME280;4590;51.462;6.692;2023-12-14T01:53:38;100709.34;;;8.73;79.08
9110;BME280;4590;51.462;6.692;2023-12-14T01:56:04;100720.91;;;8.70;78.79
9110;BME280;4590;51.462;6.692;2023-12-14T01:58:29;100721.50;;;8.67;79.11
9110;BME280;4590;51.462;6.692;2023-12-14T02:01:20;100719.94;;;8.61;78.97
9110;BME280;4590;51.462;6.692;2023-12-14T02:03:49;100730.00;;;8.66;78.49
9110;BME280;4590;51.462;6.692;2023-12-14T02:06:15;100732.75;;;8.66;78.83
9110;BME280;4590;51.462;6.692;2023-12-14T02:08:41;100728.41;;;8.65;78.97
9110;BME280;4590;51.462;6.692;2023-12-14T02:11:06;100738.66;;;8.54;78.98
9110;BME280;4590;51.462;6.692;2023-12-14T02:13:32;100731.63;;;8.48;78.84
9110;BME280;4590;51.462;6.692;2023-12-14T02:15:57;100739.84;;;8.48;78.79
9110;BME280;4590;51.462;6.692;2023-12-14T02:18:23;100751.81;;;8.33;79.08
9110;BME280;4590;51.462;6.692;2023-12-14T02:20:48;100750.69;;;8.34;78.78
9110;BME280;4590;51.462;6.692;2023-12-14T02:23:13;100760.88;;;8.29;78.77
9110;BME280;4590;51.462;6.692;2023-12-14T02:25:38;100760.69;;;8.20;78.91
9110;BME280;4590;51.462;6.692;2023-12-14T02:28:04;100770.81;;;8.20;79.10
9110;BME280;4590;51.462;6.692;2023-12-14T02:30:29;100766.69;;;8.22;78.67
9110;BME280;4590;51.462;6.692;2023-12-14T02:32:54;100775.44;;;8.24;78.98
9110;BME280;4590;51.462;6.692;2023-12-14T02:35:20;100780.09;;;8.24;78.81
9110;BME280;4590;51.462;6.692;2023-12-14T02:37:45;100777.66;;;8.22;79.09
9110;BME280;4590;51.462;6.692;2023-12-14T02:40:10;100779.81;;;8.25;78.81
9110;BME280;4590;51.462;6.692;2023-12-14T02:42:36;100785.53;;;8.29;78.94
9110;BME280;4590;51.462;6.692;2023-12-14T02:45:02;100791.03;;;8.29;78.76
9110;BME280;4590;51.462;6.692;2023-12-14T02:47:28;100787.59;;;8.18;78.61
9110;BME280;4590;51.462;6.692;2023-12-14T02:49:54;100793.53;;;8.25;78.66
9110;BME280;4590;51.462;6.692;2023-12-14T02:52:19;100799.03;;;8.20;79.17
9110;BME280;4590;51.462;6.692;2023-12-14T02:54:44;100808.91;;;8.21;78.60
9110;BME280;4590;51.462;6.692;2023-12-14T02:57:10;100814.09;;;8.23;78.61
9110;BME280;4590;51.462;6.692;2023-12-14T02:59:35;100819.59;;;8.23;78.58
9110;BME280;4590;51.462;6.692;2023-12-14T03:02:00;100821.22;;;8.24;78.67
9110;BME280;4590;51.462;6.692;2023-12-14T03:04:26;100829.97;;;8.26;78.37
9110;BME280;4590;51.462;6.692;2023-12-14T03:06:51;100832.19;;;8.24;78.82
9110;BME280;4590;51.462;6.692;2023-12-14T03:09:16;100836.00;;;8.28;78.54
9110;BME280;4590;51.462;6.692;2023-12-14T03:11:44;100828.59;;;8.28;78.28
9110;BME280;4590;51.462;6.692;2023-12-14T03:14:09;100832.19;;;8.24;78.50
9110;BME280;4590;51.462;6.692;2023-12-14T03:16:34;100840.41;;;8.24;78.47
9110;BME280;4590;51.462;6.692;2023-12-14T03:19:00;100840.41;;;8.24;78.45
9110;BME280;4590;51.462;6.692;2023-12-14T03:21:26;100847.25;;;8.26;78.62
9110;BME280;4590;51.462;6.692;2023-12-14T03:23:51;100854.13;;;8.24;78.64
9110;BME280;4590;51.462;6.692;2023-12-14T03:26:16;100863.44;;;8.23;78.96
9110;BME280;4590;51.462;6.692;2023-12-14T03:28:41;100865.09;;;8.24;78.52
9110;BME280;4590;51.462;6.692;2023-12-14T03:31:07;100860.78;;;8.18;78.91
9110;BME280;4590;51.462;6.692;2023-12-14T03:33:35;100870.09;;;8.17;78.35
9110;BME280;4590;51.462;6.692;2023-12-14T03:36:01;100871.47;;;8.14;78.47
9110;BME280;4590;51.462;6.692;2023-12-14T03:38:27;100870.13;;;8.12;78.37
9110;BME280;4590;51.462;6.692;2023-12-14T03:40:52;100882.19;;;8.10;78.47
9110;BME280;4590;51.462;6.692;2023-12-14T03:43:18;100878.66;;;8.05;78.19
9110;BME280;4590;51.462;6.692;2023-12-14T03:45:43;100884.75;;;8.02;78.76
9110;BME280;4590;51.462;6.692;2023-12-14T03:48:08;100886.13;;;7.99;78.58
9110;BME280;4590;51.462;6.692;2023-12-14T03:50:33;100885.59;;;7.97;78.47
9110;BME280;4590;51.462;6.692;2023-12-14T03:52:59;100897.38;;;7.98;78.64
9110;BME280;4590;51.462;6.692;2023-12-14T03:55:24;100897.13;;;7.94;78.54
9110;BME280;4590;51.462;6.692;2023-12-14T03:57:50;100900.66;;;7.95;78.90
9110;BME280;4590;51.462;6.692;2023-12-14T04:00:15;100909.16;;;7.93;78.66
9110;BME280;4590;51.462;6.692;2023-12-14T04:02:41;100910.00;;;7.94;78.43
9110;BME280;4590;51.462;6.692;2023-12-14T04:05:07;100919.03;;;7.94;78.26
9110;BME280;4590;51.462;6.692;2023-12-14T04:07:37;100931.09;;;7.93;78.52
9110;BME280;4590;51.462;6.692;2023-12-14T04:10:09;100932.72;;;7.94;78.55
9110;BME280;4590;51.462;6.692;2023-12-14T04:12:35;100932.72;;;7.94;78.83
9110;BME280;4590;51.462;6.692;2023-12-14T04:15:01;100934.94;;;7.87;78.61
9110;BME280;4590;51.462;6.692;2023-12-14T04:17:26;100930.28;;;7.93;78.40
9110;BME280;4590;51.462;6.692;2023-12-14T04:19:51;100935.19;;;7.96;78.92
9110;BME280;4590;51.462;6.692;2023-12-14T04:22:16;100943.97;;;7.93;78.96
9110;BME280;4590;51.462;6.692;2023-12-14T04:24:42;100942.31;;;7.97;78.77
9110;BME280;4590;51.462;6.692;2023-12-14T04:27:07;100939.28;;;7.98;78.82
9110;BME280;4590;51.462;6.692;2023-12-14T04:29:32;100945.88;;;7.97;78.42
9110;BME280;4590;51.462;6.692;2023-12-14T04:31:57;100951.34;;;7.97;78.77
9110;BME280;4590;51.462;6.692;2023-12-14T04:34:23;100958.47;;;7.98;78.66
9110;BME280;4590;51.462;6.692;2023-12-14T04:36:48;100970.00;;;7.95;78.88
9110;BME280;4590;51.462;6.692;2023-12-14T04:39:14;100965.34;;;7.91;78.43
9110;BME280;4590;51.462;6.692;2023-12-14T04:41:39;100959.91;;;7.86;78.02
9110;BME280;4590;51.462;6.692;2023-12-14T04:44:04;100970.88;;;7.86;78.27
9110;BME280;4590;51.462;6.692;2023-12-14T04:46:29;100974.47;;;7.81;78.26
9110;BME280;4590;51.462;6.692;2023-12-14T04:48:55;100976.34;;;7.86;78.49
9110;BME280;4590;51.462;6.692;2023-12-14T04:51:20;100991.47;;;7.73;78.02
9110;BME280;4590;51.462;6.692;2023-12-14T04:53:46;100995.81;;;7.79;78.07
9110;BME280;4590;51.462;6.692;2023-12-14T04:56:11;100992.00;;;7.75;78.44
9110;BME280;4590;51.462;6.692;2023-12-14T04:58:41;100996.13;;;7.72;78.15
9110;BME280;4590;51.462;6.692;2023-12-14T05:01:07;100996.13;;;7.72;77.83
9110;BME280;4590;51.462;6.692;2023-12-14T05:03:34;101002.41;;;7.73;77.97
9110;BME280;4590;51.462;6.692;2023-12-14T05:05:59;101014.78;;;7.70;78.41
9110;BME280;4590;51.462;6.692;2023-12-14T05:08:25;100999.97;;;7.71;78.28
9110;BME280;4590;51.462;6.692;2023-12-14T05:10:50;101017.81;;;7.69;78.23
9110;BME280;4590;51.462;6.692;2023-12-14T05:13:15;101013.41;;;7.68;78.07
9110;BME280;4590;51.462;6.692;2023-12-14T05:15:40;101023.84;;;7.66;78.09
9110;BME280;4590;51.462;6.692;2023-12-14T05:18:06;101017.00;;;7.63;77.91
9110;BME280;4590;51.462;6.692;2023-12-14T05:20:32;101015.91;;;7.59;78.11
9110;BME280;4590;51.462;6.692;2023-12-14T05:22:57;101016.44;;;7.61;77.88
9110;BME280;4590;51.462;6.692;2023-12-14T05:25:22;101018.91;;;7.63;78.14
9110;BME280;4590;51.462;6.692;2023-12-14T05:27:48;101028.50;;;7.60;78.24
9110;BME280;4590;51.462;6.692;2023-12-14T05:30:13;101024.38;;;7.63;78.23
9110;BME280;4590;51.462;6.692;2023-12-14T05:32:38;101030.69;;;7.63;78.08
9110;BME280;4590;51.462;6.692;2023-12-14T05:35:04;101039.44;;;7.65;78.21
9110;BME280;4590;51.462;6.692;2023-12-14T05:37:30;101044.09;;;7.65;78.20
9110;BME280;4590;51.462;6.692;2023-12-14T05:39:56;101041.91;;;7.67;78.14
9110;BME280;4590;51.462;6.692;2023-12-14T05:42:21;101054.50;;;7.68;78.37
9110;BME280;4590;51.462;6.692;2023-12-14T05:44:46;101057.25;;;7.68;77.97
9110;BME280;4590;51.462;6.692;2023-12-14T05:47:12;101070.13;;;7.67;78.27
9110;BME280;4590;51.462;6.692;2023-12-14T05:49:41;101079.16;;;7.68;77.96
9110;BME280;4590;51.462;6.692;2023-12-14T05:52:06;101090.06;;;7.73;78.75
9110;BME280;4590;51.462;6.692;2023-12-14T05:54:32;101092.81;;;7.73;78.18
9110;BME280;4590;51.462;6.692;2023-12-14T05:56:57;101098.28;;;7.73;77.91
9110;BME280;4590;51.462;6.692;2023-12-14T05:59:23;101101.03;;;7.73;78.04
9110;BME280;4590;51.462;6.692;2023-12-14T06:01:48;101116.09;;;7.75;78.34
9110;BME280;4590;51.462;6.692;2023-12-14T06:04:13;101129.25;;;7.73;78.29
9110;BME280;4590;51.462;6.692;2023-12-14T06:06:38;101125.16;;;7.71;77.91
9110;BME280;4590;51.462;6.692;2023-12-14T06:09:04;101133.06;;;7.72;78.06
9110;BME280;4590;51.462;6.692;2023-12-14T06:11:32;101137.19;;;7.75;78.19
9110;BME280;4590;51.462;6.692;2023-12-14T06:13:57;101135.00;;;7.77;78.29
9110;BME280;4590;51.462;6.692;2023-12-14T06:16:25;101142.66;;;7.75;78.12
9110;BME280;4590;51.462;6.692;2023-12-14T06:18:50;101142.13;;;7.73;77.95
9110;BME280;4590;51.462;6.692;2023-12-14T06:21:15;101147.59;;;7.73;78.14
9110;BME280;4590;51.462;6.692;2023-12-14T06:23:40;101165.66;;;7.74;77.96
9110;BME280;4590;51.462;6.692;2023-12-14T06:26:06;101165.13;;;7.77;78.09
9110;BME280;4590;51.462;6.692;2023-12-14T06:28:31;101166.75;;;7.78;78.12
9110;BME280;4590;51.462;6.692;2023-12-14T06:30:56;101170.31;;;7.79;78.07
9110;BME280;4590;51.462;6.692;2023-12-14T06:33:22;101173.88;;;7.79;77.81
9110;BME280;4590;51.462;6.692;2023-12-14T06:35:47;101179.38;;;7.79;77.57
9110;BME280;4590;51.462;6.692;2023-12-14T06:38:13;101188.69;;;7.78;77.60
9110;BME280;4590;51.462;6.692;2023-12-14T06:40:38;101185.13;;;7.78;77.71
9110;BME280;4590;51.462;6.692;2023-12-14T06:43:06;101187.31;;;7.75;77.72
9110;BME280;4590;51.462;6.692;2023-12-14T06:45:31;101200.19;;;7.75;77.86
9110;BME280;4590;51.462;6.692;2023-12-14T06:47:57;101196.91;;;7.73;77.20
9110;BME280;4590;51.462;6.692;2023-12-14T06:50:22;101199.13;;;7.71;77.68
9110;BME280;4590;51.462;6.692;2023-12-14T06:52:47;101202.94;;;7.70;77.71
9110;BME280;4590;51.462;6.692;2023-12-14T06:55:12;101200.75;;;7.67;76.97
9110;BME280;4590;51.462;6.692;2023-12-14T06:57:42;101204.59;;;7.66;77.40
9110;BME280;4590;51.462;6.692;2023-12-14T07:00:08;101213.34;;;7.68;77.19
9110;BME280;4590;51.462;6.692;2023-12-14T07:02:34;101221.84;;;7.66;77.49
9110;BME280;4590;51.462;6.692;2023-12-14T07:04:59;101224.84;;;7.60;77.73
9110;BME280;4590;51.462;6.692;2023-12-14T07:07:25;101227.31;;;7.66;77.62
9110;BME280;4590;51.462;6.692;2023-12-14T07:09:50;101237.47;;;7.66;77.60
9110;BME280;4590;51.462;6.692;2023-12-14T07:12:15;101238.81;;;7.63;77.18
9110;BME280;4590;51.462;6.692;2023-12-14T07:14:40;101252.78;;;7.62;77.01
9110;BME280;4590;51.462;6.692;2023-12-14T07:17:06;101255.25;;;7.63;77.66
9110;BME280;4590;51.462;6.692;2023-12-14T07:19:31;101264.00;;;7.60;77.90
9110;BME280;4590;51.462;6.692;2023-12-14T07:21:57;101262.91;;;7.61;77.73
9110;BME280;4590;51.462;6.692;2023-12-14T07:24:22;101269.78;;;7.64;77.22
9110;BME280;4590;51.462;6.692;2023-12-14T07:26:47;101272.78;;;7.62;77.20
9110;BME280;4590;51.462;6.692;2023-12-14T07:29:13;101276.63;;;7.61;77.37
9110;BME280;4590;51.462;6.692;2023-12-14T07:31:38;101287.03;;;7.54;77.48
9110;BME280;4590;51.462;6.692;2023-12-14T07:34:03;101287.03;;;7.54;77.45
9110;BME280;4590;51.462;6.692;2023-12-14T07:36:28;101288.13;;;7.53;77.05
9110;BME280;4590;51.462;6.692;2023-12-14T07:38:54;101290.03;;;7.53;77.07
9110;BME280;4590;51.462;6.692;2023-12-14T07:41:19;101282.38;;;7.50;77.30
9110;BME280;4590;51.462;6.692;2023-12-14T07:43:44;101294.41;;;7.49;77.04
9110;BME280;4590;51.462;6.692;2023-12-14T07:46:09;101298.78;;;7.45;77.34
9110;BME280;4590;51.462;6.692;2023-12-14T07:48:35;101304.00;;;7.46;77.28
9110;BME280;4590;51.462;6.692;2023-12-14T07:51:00;101305.91;;;7.46;77.32
9110;BME280;4590;51.462;6.692;2023-12-14T07:53:25;101308.63;;;7.46;76.65
9110;BME280;4590;51.462;6.692;2023-12-14T07:55:51;101320.41;;;7.41;76.73
9110;BME280;4590;51.462;6.692;2023-12-14T07:58:17;101325.03;;;7.40;76.21
9110;BME280;4590;51.462;6.692;2023-12-14T08:00:42;101341.22;;;7.42;77.01
9110;BME280;4590;51.462;6.692;2023-12-14T08:03:07;101336.81;;;7.41;76.89
9110;BME280;4590;51.462;6.692;2023-12-14T08:05:32;101338.19;;;7.44;76.89
9110;BME280;4590;51.462;6.692;2023-12-14T08:07:57;101353.53;;;7.45;76.62
9110;BME280;4590;51.462;6.692;2023-12-14T08:10:23;101366.66;;;7.43;76.45
9110;BME280;4590;51.462;6.692;2023-12-14T08:12:48;101372.16;;;7.43;76.90
9110;BME280;4590;51.462;6.692;2023-12-14T08:15:13;101376.53;;;7.44;76.80
9110;BME280;4590;51.462;6.692;2023-12-14T08:17:39;101385.31;;;7.46;76.63
9110;BME280;4590;51.462;6.692;2023-12-14T08:20:04;101383.66;;;7.45;76.62
9110;BME280;4590;51.462;6.692;2023-12-14T08:22:34;101384.22;;;7.47;76.55
9110;BME280;4590;51.462;6.692;2023-12-14T08:24:59;101393.25;;;7.47;76.56
9110;BME280;4590;51.462;6.692;2023-12-14T08:27:24;101408.03;;;7.46;76.79
9110;BME280;4590;51.462;6.692;2023-12-14T08:29:49;101412.97;;;7.49;76.90
9110;BME280;4590;51.462;6.692;2023-12-14T08:32:15;101405.06;;;7.53;76.75
9110;BME280;4590;51.462;6.692;2023-12-14T08:34:40;101412.44;;;7.52;76.81
9110;BME280;4590;51.462;6.692;2023-12-14T08:37:05;101421.22;;;7.54;76.77
9110;BME280;4590;51.462;6.692;2023-12-14T08:39:31;101426.69;;;7.54;76.36
9110;BME280;4590;51.462;6.692;2023-12-14T08:41:56;101435.16;;;7.58;76.24
9110;BME280;4590;51.462;6.692;2023-12-14T08:44:21;101436.81;;;7.59;76.57
9110;BME280;4590;51.462;6.692;2023-12-14T08:46:47;101443.38;;;7.58;76.23
9110;BME280;4590;51.462;6.692;2023-12-14T08:49:13;101437.66;;;7.59;76.12
9110;BME280;4590;51.462;6.692;2023-12-14T08:51:39;101447.50;;;7.60;76.54
9110;BME280;4590;51.462;6.692;2023-12-14T08:54:05;101449.97;;;7.62;76.45
9110;BME280;4590;51.462;6.692;2023-12-14T08:56:30;101462.31;;;7.64;76.33
9110;BME280;4590;51.462;6.692;2023-12-14T08:58:56;101465.88;;;7.65;76.02
9110;BME280;4590;51.462;6.692;2023-12-14T09:01:23;101477.41;;;7.67;76.29
9110;BME280;4590;51.462;6.692;2023-12-14T09:03:48;101472.47;;;7.69;76.14
9110;BME280;4590;51.462;6.692;2023-12-14T09:06:16;101474.91;;;7.65;76.21
9110;BME280;4590;51.462;6.692;2023-12-14T09:08:42;101477.13;;;7.68;75.95
9110;BME280;4590;51.462;6.692;2023-12-14T09:11:07;101482.06;;;7.66;75.94
9110;BME280;4590;51.462;6.692;2023-12-14T09:13:32;101484.53;;;7.68;75.81
9110;BME280;4590;51.462;6.692;2023-12-14T09:15:58;101483.69;;;7.67;75.98
9110;BME280;4590;51.462;6.692;2023-12-14T09:18:24;101476.56;;;7.66;75.75
9110;BME280;4590;51.462;6.692;2023-12-14T09:20:49;101477.66;;;7.65;75.77
9110;BME280;4590;51.462;6.692;2023-12-14T09:23:18;101480.41;;;7.65;75.95
9110;BME280;4590;51.462;6.692;2023-12-14T09:25:44;101488.91;;;7.69;76.18
9110;BME280;4590;51.462;6.692;2023-12-14T09:28:10;101492.75;;;7.68;76.00
9110;BME280;4590;51.462;6.692;2023-12-14T09:30:35;101500.44;;;7.71;76.13
9110;BME280;4590;51.462;6.692;2023-12-14T09:33:00;101503.16;;;7.71;75.85
9110;BME280;4590;51.462;6.692;2023-12-14T09:35:25;101502.88;;;7.72;75.64
9110;BME280;4590;51.462;6.692;2023-12-14T09:37:51;101496.56;;;7.72;75.37
9110;BME280;4590;51.462;6.692;2023-12-14T09:40:17;101509.16;;;7.73;75.94
9110;BME280;4590;51.462;6.692;2023-12-14T09:42:43;101511.88;;;7.63;75.32
9110;BME280;4590;51.462;6.692;2023-12-14T09:45:09;101516.56;;;7.72;75.49
9110;BME280;4590;51.462;6.692;2023-12-14T09:47:36;101520.13;;;7.73;75.69
9110;BME280;4590;51.462;6.692;2023-12-14T09:50:02;101516.84;;;7.76;75.48
9110;BME280;4590;51.462;6.692;2023-12-14T09:52:28;101522.34;;;7.76;75.48
9110;BME280;4590;51.462;6.692;2023-12-14T09:54:53;101532.47;;;7.75;75.27
9110;BME280;4590;51.462;6.692;2023-12-14T09:57:19;101532.75;;;7.79;75.21
9110;BME280;4590;51.462;6.692;2023-12-14T09:59:54;101534.69;;;7.79;75.17
9110;BME280;4590;51.462;6.692;2023-12-14T10:02:24;101547.28;;;7.80;75.04
9110;BME280;4590;51.462;6.692;2023-12-14T10:04:50;101549.75;;;7.81;75.42
9110;BME280;4590;51.462;6.692;2023-12-14T10:07:15;101561.53;;;7.82;75.36
9110;BME280;4590;51.462;6.692;2023-12-14T10:09:42;101557.44;;;7.84;74.95
9110;BME280;4590;51.462;6.692;2023-12-14T10:12:08;101566.22;;;7.86;75.32
9110;BME280;4590;51.462;6.692;2023-12-14T10:14:34;101566.22;;;7.86;75.24
9110;BME280;4590;51.462;6.692;2023-12-14T10:17:20;101568.13;;;7.81;74.93
9110;BME280;4590;51.462;6.692;2023-12-14T10:19:47;101578.00;;;7.87;75.21
9110;BME280;4590;51.462;6.692;2023-12-14T10:22:16;101589.78;;;7.87;75.37
9110;BME280;4590;51.462;6.692;2023-12-14T10:24:51;101596.06;;;7.88;75.04
9110;BME280;4590;51.462;6.692;2023-12-14T10:27:17;101596.91;;;7.88;75.26
9110;BME280;4590;51.462;6.692;2023-12-14T10:29:42;101604.03;;;7.89;75.24
9110;BME280;4590;51.462;6.692;2023-12-14T10:32:10;101602.38;;;7.88;75.11
9110;BME280;4590;51.462;6.692;2023-12-14T10:34:36;101612.25;;;7.84;75.43
9110;BME280;4590;51.462;6.692;2023-12-14T10:37:04;101608.94;;;7.82;75.05
9110;BME280;4590;51.462;6.692;2023-12-14T10:39:31;101608.94;;;7.82;75.58
9110;BME280;4590;51.462;6.692;2023-12-14T10:41:58;101615.25;;;7.83;75.38
9110;BME280;4590;51.462;6.692;2023-12-14T10:44:26;101616.59;;;7.80;75.46
9110;BME280;4590;51.462;6.692;2023-12-14T10:46:55;101626.47;;;7.81;75.42
9110;BME280;4590;51.462;6.692;2023-12-14T10:49:24;101623.75;;;7.81;75.25
9110;BME280;4590;51.462;6.692;2023-12-14T10:51:52;101620.44;;;7.79;75.81
9110;BME280;4590;51.462;6.692;2023-12-14T10:54:18;101625.09;;;7.79;75.46
9110;BME280;4590;51.462;6.692;2023-12-14T10:56:44;101626.13;;;7.67;75.17
9110;BME280;4590;51.462;6.692;2023-12-14T10:59:09;101622.31;;;7.73;75.17
9110;BME280;4590;51.462;6.692;2023-12-14T11:01:34;101622.03;;;7.70;75.79
9110;BME280;4590;51.462;6.692;2023-12-14T11:04:01;101629.19;;;7.71;75.42
9110;BME280;4590;51.462;6.692;2023-12-14T11:06:36;101639.00;;;7.67;75.48
9110;BME280;4590;51.462;6.692;2023-12-14T11:09:07;101641.47;;;7.68;75.28
9110;BME280;4590;51.462;6.692;2023-12-14T11:11:56;101640.09;;;7.66;75.14
9110;BME280;4590;51.462;6.692;2023-12-14T11:14:23;101649.97;;;7.72;75.35
9110;BME280;4590;51.462;6.692;2023-12-14T11:16:49;101654.63;;;7.71;75.51
9110;BME280;4590;51.462;6.692;2023-12-14T11:21:46;101659.00;;;7.67;75.63
9110;BME280;4590;51.462;6.692;2023-12-14T11:24:12;101659.00;;;7.67;75.47
9110;BME280;4590;51.462;6.692;2023-12-14T11:26:37;101665.31;;;7.68;75.87
9110;BME280;4590;51.462;6.692;2023-12-14T11:29:02;101663.41;;;7.68;75.58
9110;BME280;4590;51.462;6.692;2023-12-14T11:31:29;101667.97;;;7.58;75.36
9110;BME280;4590;51.462;6.692;2023-12-14T11:33:54;101668.31;;;7.66;75.63
9110;BME280;4590;51.462;6.692;2023-12-14T11:36:21;101682.56;;;7.68;75.84
9110;BME280;4590;51.462;6.692;2023-12-14T11:38:47;101665.31;;;7.68;75.73
9110;BME280;4590;51.462;6.692;2023-12-14T11:41:13;101669.91;;;7.62;75.50
9110;BME280;4590;51.462;6.692;2023-12-14T11:43:39;101671.06;;;7.71;75.63
9110;BME280;4590;51.462;6.692;2023-12-14T11:46:05;101680.09;;;7.72;75.88
9110;BME280;4590;51.462;6.692;2023-12-14T11:48:30;101677.94;;;7.74;75.79
9110;BME280;4590;51.462;6.692;2023-12-14T11:50:56;101679.06;;;7.78;75.72
9110;BME280;4590;51.462;6.692;2023-12-14T11:53:21;101679.63;;;7.80;75.84
9110;BME280;4590;51.462;6.692;2023-12-14T11:55:46;101680.19;;;7.82;75.78
9110;BME280;4590;51.462;6.692;2023-12-14T11:58:12;101690.06;;;7.83;75.63
9110;BME280;4590;51.462;6.692;2023-12-14T12:00:41;101682.66;;;7.84;75.30
9110;BME280;4590;51.462;6.692;2023-12-14T12:03:13;101688.41;;;7.82;75.04
9110;BME280;4590;51.462;6.692;2023-12-14T12:08:06;101683.13;;;7.70;74.97
9110;BME280;4590;51.462;6.692;2023-12-14T12:10:32;101680.97;;;7.78;75.45
9110;BME280;4590;51.462;6.692;2023-12-14T12:13:02;101691.09;;;7.77;75.49
9110;BME280;4590;51.462;6.692;2023-12-14T12:15:27;101679.88;;;7.79;75.28
9110;BME280;4590;51.462;6.692;2023-12-14T12:17:53;101695.50;;;7.78;75.39
9110;BME280;4590;51.462;6.692;2023-12-14T12:20:18;101697.41;;;7.78;75.25
9110;BME280;4590;51.462;6.692;2023-12-14T12:22:44;101693.84;;;7.77;75.25
9110;BME280;4590;51.462;6.692;2023-12-14T12:25:09;101702.06;;;7.77;75.78
9110;BME280;4590;51.462;6.692;2023-12-14T12:27:34;101696.03;;;7.75;75.10
9110;BME280;4590;51.462;6.692;2023-12-14T12:29:59;101697.09;;;7.74;75.48
9110;BME280;4590;51.462;6.692;2023-12-14T12:32:24;101692.44;;;7.74;75.13
9110;BME280;4590;51.462;6.692;2023-12-14T12:34:50;101697.09;;;7.74;75.26
9110;BME280;4590;51.462;6.692;2023-12-14T12:37:15;101704.81;;;7.77;75.54
9110;BME280;4590;51.462;6.692;2023-12-14T12:39:40;101711.66;;;7.80;75.78
9110;BME280;4590;51.462;6.692;2023-12-14T12:42:06;101717.16;;;7.80;75.50
9110;BME280;4590;51.462;6.692;2023-12-14T12:44:31;101716.91;;;7.81;75.29
9110;BME280;4590;51.462;6.692;2023-12-14T12:46:56;101717.97;;;7.80;75.50
9110;BME280;4590;51.462;6.692;2023-12-14T12:49:24;101714.97;;;7.82;75.28
9110;BME280;4590;51.462;6.692;2023-12-14T12:51:49;101714.41;;;7.80;74.85
9110;BME280;4590;51.462;6.692;2023-12-14T12:54:14;101714.66;;;7.78;75.45
9110;BME280;4590;51.462;6.692;2023-12-14T12:56:39;101720.41;;;7.77;75.41
9110;BME280;4590;51.462;6.692;2023-12-14T12:59:05;101719.06;;;7.79;75.40
9110;BME280;4590;51.462;6.692;2023-12-14T13:01:30;101734.41;;;7.80;75.40
9110;BME280;4590;51.462;6.692;2023-12-14T13:03:55;101727.84;;;7.81;75.09
9110;BME280;4590;51.462;6.692;2023-12-14T13:06:24;101731.41;;;7.82;75.40
9110;BME280;4590;51.462;6.692;2023-12-14T13:08:50;101732.97;;;7.72;74.74
9110;BME280;4590;51.462;6.692;2023-12-14T13:11:15;101742.06;;;7.78;75.04
9110;BME280;4590;51.462;6.692;2023-12-14T13:13:41;101745.03;;;7.71;74.44
9110;BME280;4590;51.462;6.692;2023-12-14T13:16:06;101749.72;;;7.71;74.73
9110;BME280;4590;51.462;6.692;2023-12-14T13:18:32;101752.41;;;7.66;74.92
9110;BME280;4590;51.462;6.692;2023-12-14T13:20:57;101756.22;;;7.65;74.44